createdAt,value
2022-10-24T00:00:20.594Z,0
2022-10-24T00:01:36.903Z,0
2022-10-24T00:02:53.167Z,0
2022-10-24T00:04:09.466Z,0
2022-10-24T00:05:25.773Z,0
2022-10-24T00:06:42.063Z,0
2022-10-24T00:07:58.358Z,0
2022-10-24T00:09:14.656Z,0
2022-10-24T00:10:29.975Z,0
2022-10-24T00:11:46.271Z,0
2022-10-24T00:13:02.534Z,0
2022-10-24T00:14:18.857Z,0
2022-10-24T00:15:35.146Z,0
2022-10-24T00:16:51.428Z,0
2022-10-24T00:18:07.724Z,0
2022-10-24T00:19:24.032Z,0
2022-10-24T00:20:40.312Z,0
2022-10-24T00:21:56.584Z,0
2022-10-24T00:23:12.893Z,0
2022-10-24T00:24:29.187Z,0
2022-10-24T00:25:45.466Z,0
2022-10-24T00:27:00.783Z,0
2022-10-24T00:28:17.085Z,0
2022-10-24T00:29:33.388Z,0
2022-10-24T00:30:49.672Z,0
2022-10-24T00:32:05.970Z,0
2022-10-24T00:33:22.260Z,0
2022-10-24T00:34:38.534Z,0
2022-10-24T00:35:54.847Z,0
2022-10-24T00:37:11.124Z,0
2022-10-24T00:38:27.437Z,0
2022-10-24T00:39:43.736Z,0
2022-10-24T00:41:00.001Z,0
2022-10-24T00:42:16.308Z,0
2022-10-24T00:43:31.604Z,0
2022-10-24T00:44:47.912Z,0
2022-10-24T00:47:20.488Z,0
2022-10-24T00:48:36.797Z,0
2022-10-24T00:49:53.104Z,0
2022-10-24T00:51:09.390Z,0
2022-10-24T00:52:25.676Z,0
2022-10-24T00:53:41.954Z,0
2022-10-24T00:54:58.277Z,0
2022-10-24T00:56:14.563Z,0
2022-10-24T00:57:30.860Z,0
2022-10-24T00:58:47.139Z,0
2022-10-24T01:00:02.450Z,0
2022-10-24T01:01:18.744Z,0
2022-10-24T01:02:35.017Z,0
2022-10-24T01:03:51.322Z,0
2022-10-24T01:05:07.635Z,0
2022-10-24T01:06:23.904Z,0
2022-10-24T01:07:40.209Z,0
2022-10-24T01:08:56.510Z,0
2022-10-24T01:10:12.805Z,0
2022-10-24T01:11:29.097Z,0
2022-10-24T01:12:45.388Z,0
2022-10-24T01:14:01.684Z,0
2022-10-24T01:15:17.973Z,0
2022-10-24T01:16:33.294Z,0
2022-10-24T01:17:49.573Z,0
2022-10-24T01:19:05.874Z,0
2022-10-24T01:21:38.454Z,0
2022-10-24T01:22:54.734Z,0
2022-10-24T01:24:11.048Z,0
2022-10-24T01:25:27.316Z,0
2022-10-24T01:26:43.640Z,0
2022-10-24T01:27:59.920Z,0
2022-10-24T01:29:16.225Z,0
2022-10-24T01:30:32.511Z,0
2022-10-24T01:31:48.793Z,0
2022-10-24T01:33:04.130Z,0
2022-10-24T01:34:20.401Z,0
2022-10-24T01:35:36.692Z,0
2022-10-24T01:36:52.999Z,0
2022-10-24T01:38:09.267Z,0
2022-10-24T01:39:25.586Z,0
2022-10-24T01:40:41.885Z,0
2022-10-24T01:41:58.169Z,0
2022-10-24T01:43:14.474Z,0
2022-10-24T01:44:30.740Z,0
2022-10-24T01:45:47.044Z,0
2022-10-24T01:47:03.330Z,0
2022-10-24T01:48:19.631Z,0
2022-10-24T01:49:34.960Z,0
2022-10-24T01:50:51.246Z,0
2022-10-24T01:52:07.511Z,0
2022-10-24T01:53:23.804Z,0
2022-10-24T01:54:40.119Z,0
2022-10-24T01:55:56.418Z,0
2022-10-24T01:57:11.709Z,0
2022-10-24T01:58:28.035Z,0
2022-10-24T01:59:44.311Z,0
2022-10-24T02:01:00.611Z,0
2022-10-24T02:02:16.909Z,0
2022-10-24T02:03:33.190Z,0
2022-10-24T02:04:49.493Z,0
2022-10-24T02:06:05.787Z,0
2022-10-24T02:07:22.078Z,0
2022-10-24T02:08:38.380Z,0
2022-10-24T02:09:54.645Z,0
2022-10-24T02:11:10.942Z,0
2022-10-24T02:12:27.257Z,0
2022-10-24T02:13:42.560Z,0
2022-10-24T02:14:58.866Z,0
2022-10-24T02:16:15.147Z,0
2022-10-24T02:17:31.440Z,0
2022-10-24T02:18:47.730Z,0
2022-10-24T02:20:04.012Z,0
2022-10-24T02:21:20.304Z,0
2022-10-24T02:22:36.592Z,0
2022-10-24T02:23:52.912Z,0
2022-10-24T02:25:09.198Z,0
2022-10-24T02:26:25.483Z,0
2022-10-24T02:27:41.782Z,0
2022-10-24T02:28:58.080Z,0
2022-10-24T02:30:13.396Z,0
2022-10-24T02:31:29.689Z,0
2022-10-24T02:32:45.956Z,0
2022-10-24T02:34:02.249Z,0
2022-10-24T02:35:18.546Z,0
2022-10-24T02:36:34.856Z,0
2022-10-24T02:37:51.137Z,0
2022-10-24T02:39:07.442Z,0
2022-10-24T02:40:23.736Z,0
2022-10-24T02:41:40.026Z,0
2022-10-24T02:42:56.318Z,0
2022-10-24T02:44:12.625Z,0
2022-10-24T02:45:28.912Z,0
2022-10-24T02:46:44.207Z,0
2022-10-24T02:48:00.495Z,0
2022-10-24T02:49:16.782Z,0
2022-10-24T02:50:33.104Z,0
2022-10-24T02:51:49.384Z,0
2022-10-24T02:53:05.682Z,0
2022-10-24T02:54:21.980Z,0
2022-10-24T02:55:38.277Z,0
2022-10-24T02:56:54.000Z,0
2022-10-24T02:58:10.874Z,0
2022-10-24T02:59:27.140Z,0
2022-10-24T03:00:43.442Z,0
2022-10-24T03:01:59.736Z,0
2022-10-24T03:03:15.045Z,0
2022-10-24T03:04:31.336Z,0
2022-10-24T03:05:47.642Z,0
2022-10-24T03:07:03.933Z,0
2022-10-24T03:08:20.230Z,0
2022-10-24T03:09:36.502Z,0
2022-10-24T03:10:52.812Z,0
2022-10-24T03:12:09.099Z,0
2022-10-24T03:13:25.399Z,0
2022-10-24T03:14:41.685Z,0
2022-10-24T03:15:57.964Z,0
2022-10-24T03:17:14.283Z,0
2022-10-24T03:18:30.569Z,0
2022-10-24T03:19:45.865Z,0
2022-10-24T03:21:02.170Z,0
2022-10-24T03:22:18.455Z,0
2022-10-24T03:23:34.755Z,0
2022-10-24T03:24:51.049Z,0
2022-10-24T03:26:07.353Z,0
2022-10-24T03:27:23.634Z,0
2022-10-24T03:28:39.929Z,0
2022-10-24T03:29:56.211Z,0
2022-10-24T03:31:12.512Z,0
2022-10-24T03:32:28.807Z,0
2022-10-24T03:33:45.112Z,0
2022-10-24T03:35:01.398Z,0
2022-10-24T03:36:16.702Z,0
2022-10-24T03:37:32.998Z,0
2022-10-24T03:38:49.289Z,0
2022-10-24T03:40:05.594Z,0
2022-10-24T03:41:21.886Z,0
2022-10-24T03:42:38.172Z,0
2022-10-24T03:43:54.464Z,0
2022-10-24T03:45:10.753Z,0
2022-10-24T03:46:27.050Z,0
2022-10-24T03:47:43.349Z,0
2022-10-24T03:48:59.629Z,0
2022-10-24T03:50:15.928Z,0
2022-10-24T03:51:32.217Z,0
2022-10-24T03:52:47.530Z,0
2022-10-24T03:54:03.813Z,0
2022-10-24T03:55:20.126Z,0
2022-10-24T03:56:36.417Z,0
2022-10-24T03:57:52.705Z,0
2022-10-24T03:59:09.008Z,0
2022-10-24T04:00:25.290Z,0
2022-10-24T04:01:41.595Z,0
2022-10-24T04:02:57.892Z,0
2022-10-24T04:04:14.172Z,0
2022-10-24T04:05:30.466Z,0
2022-10-24T04:06:46.773Z,0
2022-10-24T04:08:03.062Z,0
2022-10-24T04:09:18.370Z,0
2022-10-24T04:10:34.645Z,0
2022-10-24T04:11:50.949Z,0
2022-10-24T04:13:07.260Z,0
2022-10-24T04:14:23.547Z,0
2022-10-24T04:15:39.842Z,0
2022-10-24T04:16:56.122Z,0
2022-10-24T04:18:12.000Z,0
2022-10-24T04:19:28.724Z,0
2022-10-24T04:20:45.018Z,0
2022-10-24T04:22:01.306Z,0
2022-10-24T04:23:17.579Z,0
2022-10-24T04:24:33.893Z,0
2022-10-24T04:25:49.209Z,0
2022-10-24T04:27:05.485Z,0
2022-10-24T04:28:21.788Z,0
2022-10-24T04:29:38.063Z,0
2022-10-24T04:30:54.374Z,0
2022-10-24T04:32:10.657Z,0
2022-10-24T04:33:26.959Z,0
2022-10-24T04:34:43.260Z,0
2022-10-24T04:35:59.525Z,0
2022-10-24T04:37:15.820Z,0
2022-10-24T04:38:32.111Z,0
2022-10-24T04:39:48.407Z,0
2022-10-24T04:41:04.722Z,0
2022-10-24T04:42:20.007Z,0
2022-10-24T04:43:36.319Z,0
2022-10-24T04:44:52.625Z,0
2022-10-24T04:46:08.902Z,0
2022-10-24T04:47:25.204Z,0
2022-10-24T04:48:41.478Z,0
2022-10-24T04:49:57.795Z,0
2022-10-24T04:51:14.081Z,0
2022-10-24T04:52:30.369Z,0
2022-10-24T04:53:46.673Z,0
2022-10-24T04:55:02.944Z,0
2022-10-24T04:56:19.245Z,0
2022-10-24T04:57:35.540Z,0
2022-10-24T04:58:50.835Z,0
2022-10-24T05:00:07.150Z,0
2022-10-24T05:01:23.435Z,0
2022-10-24T05:02:39.739Z,0
2022-10-24T05:03:56.026Z,0
2022-10-24T05:05:12.317Z,0
2022-10-24T05:06:28.610Z,0
2022-10-24T05:07:44.910Z,0
2022-10-24T05:09:01.194Z,0
2022-10-24T05:10:17.498Z,0
2022-10-24T05:11:33.766Z,0
2022-10-24T05:12:50.073Z,0
2022-10-24T05:14:06.352Z,0
2022-10-24T05:15:21.678Z,0
2022-10-24T05:16:37.958Z,0
2022-10-24T05:17:54.278Z,0
2022-10-24T05:19:10.573Z,0
2022-10-24T05:20:26.854Z,0
2022-10-24T05:21:43.100Z,0
2022-10-24T05:22:59.328Z,0
2022-10-24T05:24:15.554Z,0
2022-10-24T05:26:48.055Z,0
2022-10-24T05:28:04.293Z,0
2022-10-24T05:29:20.537Z,0
2022-10-24T05:30:36.773Z,0
2022-10-24T05:31:52.013Z,0
2022-10-24T05:33:08.255Z,0
2022-10-24T05:34:24.496Z,0
2022-10-24T05:35:40.724Z,0
2022-10-24T05:36:56.979Z,0
2022-10-24T05:38:13.219Z,0
2022-10-24T05:39:29.443Z,0
2022-10-24T05:40:45.698Z,0
2022-10-24T05:42:01.930Z,0
2022-10-24T05:43:18.159Z,0
2022-10-24T05:44:34.414Z,0
2022-10-24T05:45:50.662Z,0
2022-10-24T05:47:06.880Z,0
2022-10-24T05:48:22.141Z,0
2022-10-24T05:49:38.373Z,0
2022-10-24T05:50:54.638Z,0
2022-10-24T05:52:10.850Z,0
2022-10-24T05:53:27.120Z,5
2022-10-24T05:54:43.350Z,5
2022-10-24T05:55:59.594Z,5
2022-10-24T05:57:15.808Z,5
2022-10-24T05:58:32.062Z,5
2022-10-24T05:59:48.303Z,5
2022-10-24T06:01:04.540Z,11
2022-10-24T06:02:20.774Z,11
2022-10-24T06:03:37.029Z,11
2022-10-24T06:04:52.271Z,11
2022-10-24T06:06:08.531Z,16
2022-10-24T06:07:24.758Z,16
2022-10-24T06:08:41.009Z,16
2022-10-24T06:09:57.222Z,22
2022-10-24T06:11:13.472Z,22
2022-10-24T06:12:28.721Z,28
2022-10-24T06:13:44.998Z,28
2022-10-24T06:15:01.206Z,33
2022-10-24T06:16:17.458Z,33
2022-10-24T06:17:33.692Z,39
2022-10-24T06:18:49.934Z,39
2022-10-24T06:20:06.154Z,39
2022-10-24T06:21:22.416Z,45
2022-10-24T06:22:38.650Z,45
2022-10-24T06:23:54.903Z,45
2022-10-24T06:25:11.119Z,50
2022-10-24T06:26:27.370Z,50
2022-10-24T06:27:43.592Z,56
2022-10-24T06:28:58.853Z,56
2022-10-24T06:30:15.106Z,61
2022-10-24T06:31:31.332Z,61
2022-10-24T06:32:47.574Z,67
2022-10-24T06:34:03.809Z,67
2022-10-24T06:35:20.044Z,67
2022-10-24T06:36:36.309Z,73
2022-10-24T06:37:52.524Z,73
2022-10-24T06:39:08.780Z,73
2022-10-24T06:40:25.014Z,73
2022-10-24T06:41:41.273Z,73
2022-10-24T06:42:57.500Z,78
2022-10-24T06:44:13.718Z,78
2022-10-24T06:45:28.997Z,78
2022-10-24T06:46:45.243Z,78
2022-10-24T06:48:01.472Z,78
2022-10-24T06:49:17.694Z,78
2022-10-24T06:50:33.958Z,78
2022-10-24T06:51:50.192Z,78
2022-10-24T06:53:06.437Z,78
2022-10-24T06:54:22.647Z,78
2022-10-24T06:55:38.918Z,84
2022-10-24T06:56:55.159Z,84
2022-10-24T06:58:11.392Z,84
2022-10-24T06:59:27.631Z,90
2022-10-24T07:00:43.866Z,90
2022-10-24T07:01:59.122Z,90
2022-10-24T07:03:15.364Z,95
2022-10-24T07:04:31.613Z,95
2022-10-24T07:05:47.838Z,95
2022-10-24T07:07:04.090Z,101
2022-10-24T07:08:20.298Z,101
2022-10-24T07:09:36.553Z,101
2022-10-24T07:10:52.775Z,101
2022-10-24T07:12:09.046Z,101
2022-10-24T07:13:25.276Z,95
2022-10-24T07:14:41.507Z,95
2022-10-24T07:15:57.737Z,101
2022-10-24T07:17:13.997Z,101
2022-10-24T07:18:29.240Z,106
2022-10-24T07:19:45.488Z,112
2022-10-24T07:21:01.706Z,118
2022-10-24T07:22:17.972Z,123
2022-10-24T07:23:34.214Z,129
2022-10-24T07:24:50.456Z,129
2022-10-24T07:26:06.685Z,135
2022-10-24T07:27:22.930Z,135
2022-10-24T07:28:39.156Z,140
2022-10-24T07:29:55.395Z,140
2022-10-24T07:31:11.635Z,140
2022-10-24T07:32:27.872Z,135
2022-10-24T07:33:44.124Z,129
2022-10-24T07:34:59.382Z,129
2022-10-24T07:36:15.591Z,129
2022-10-24T07:37:31.852Z,129
2022-10-24T07:38:48.102Z,129
2022-10-24T07:40:04.344Z,135
2022-10-24T07:41:20.550Z,129
2022-10-24T07:42:36.819Z,129
2022-10-24T07:43:53.049Z,129
2022-10-24T07:45:09.287Z,129
2022-10-24T07:46:25.509Z,129
2022-10-24T07:47:41.747Z,123
2022-10-24T07:48:58.005Z,123
2022-10-24T07:50:14.252Z,123
2022-10-24T07:51:29.496Z,118
2022-10-24T07:52:45.755Z,118
2022-10-24T07:54:01.992Z,118
2022-10-24T07:55:18.227Z,112
2022-10-24T07:56:34.466Z,112
2022-10-24T07:57:50.703Z,118
2022-10-24T07:59:06.936Z,118
2022-10-24T08:00:23.182Z,118
2022-10-24T08:01:39.429Z,123
2022-10-24T08:02:55.672Z,123
2022-10-24T08:04:11.904Z,129
2022-10-24T08:05:28.144Z,129
2022-10-24T08:06:44.377Z,135
2022-10-24T08:07:59.643Z,135
2022-10-24T08:09:15.868Z,135
2022-10-24T08:10:32.106Z,135
2022-10-24T08:11:48.346Z,129
2022-10-24T08:13:04.590Z,129
2022-10-24T08:14:20.827Z,123
2022-10-24T08:15:37.055Z,123
2022-10-24T08:16:53.322Z,123
2022-10-24T08:18:09.551Z,123
2022-10-24T08:19:25.772Z,123
2022-10-24T08:20:42.031Z,123
2022-10-24T08:21:58.277Z,129
2022-10-24T08:23:14.499Z,135
2022-10-24T08:24:29.744Z,129
2022-10-24T08:25:46.007Z,129
2022-10-24T08:27:02.245Z,129
2022-10-24T08:28:18.490Z,123
2022-10-24T08:29:34.710Z,123
2022-10-24T08:30:50.963Z,123
2022-10-24T08:32:07.187Z,123
2022-10-24T08:33:23.456Z,129
2022-10-24T08:34:39.667Z,135
2022-10-24T08:35:55.920Z,140
2022-10-24T08:37:12.142Z,140
2022-10-24T08:38:28.409Z,146
2022-10-24T08:39:44.624Z,151
2022-10-24T08:40:59.896Z,151
2022-10-24T08:42:16.148Z,163
2022-10-24T08:43:32.376Z,168
2022-10-24T08:44:48.596Z,174
2022-10-24T08:46:04.858Z,180
2022-10-24T08:47:21.100Z,185
2022-10-24T08:48:37.339Z,185
2022-10-24T08:49:53.582Z,191
2022-10-24T08:51:09.806Z,185
2022-10-24T08:52:26.054Z,185
2022-10-24T08:54:58.549Z,191
2022-10-24T08:56:14.783Z,191
2022-10-24T08:57:30.031Z,191
2022-10-24T08:58:46.280Z,196
2022-10-24T09:00:02.493Z,191
2022-10-24T09:01:18.745Z,191
2022-10-24T09:02:34.967Z,191
2022-10-24T09:03:51.208Z,196
2022-10-24T09:05:07.470Z,196
2022-10-24T09:06:23.716Z,191
2022-10-24T09:07:39.955Z,191
2022-10-24T09:08:56.197Z,191
2022-10-24T09:10:12.439Z,191
2022-10-24T09:11:28.663Z,185
2022-10-24T09:12:44.915Z,185
2022-10-24T09:14:00.160Z,185
2022-10-24T09:15:16.401Z,185
2022-10-24T09:16:32.640Z,180
2022-10-24T09:17:48.892Z,180
2022-10-24T09:19:05.114Z,180
2022-10-24T09:20:21.368Z,174
2022-10-24T09:22:53.836Z,174
2022-10-24T09:24:10.069Z,174
2022-10-24T09:25:26.322Z,174
2022-10-24T09:26:42.546Z,174
2022-10-24T09:27:58.804Z,174
2022-10-24T09:29:15.016Z,174
2022-10-24T09:30:30.280Z,174
2022-10-24T09:31:46.502Z,174
2022-10-24T09:33:02.770Z,180
2022-10-24T09:34:19.003Z,185
2022-10-24T09:35:35.238Z,185
2022-10-24T09:36:51.490Z,180
2022-10-24T09:38:07.715Z,180
2022-10-24T09:39:23.953Z,180
2022-10-24T09:40:40.173Z,180
2022-10-24T09:41:56.440Z,180
2022-10-24T09:43:12.654Z,180
2022-10-24T09:44:28.909Z,185
2022-10-24T09:45:45.154Z,185
2022-10-24T09:47:00.401Z,185
2022-10-24T09:48:16.653Z,185
2022-10-24T09:49:32.895Z,180
2022-10-24T09:50:49.123Z,180
2022-10-24T09:52:05.368Z,180
2022-10-24T09:53:21.606Z,174
2022-10-24T09:54:37.836Z,174
2022-10-24T09:55:54.075Z,174
2022-10-24T09:57:10.317Z,168
2022-10-24T09:58:26.565Z,174
2022-10-24T09:59:42.791Z,174
2022-10-24T10:00:59.048Z,180
2022-10-24T10:02:15.270Z,180
2022-10-24T10:03:30.533Z,180
2022-10-24T10:04:46.744Z,180
2022-10-24T10:06:03.019Z,180
2022-10-24T10:07:19.220Z,180
2022-10-24T10:08:35.490Z,185
2022-10-24T10:09:51.734Z,185
2022-10-24T10:11:07.955Z,185
2022-10-24T10:12:24.213Z,185
2022-10-24T10:13:40.454Z,180
2022-10-24T10:14:56.681Z,180
2022-10-24T10:16:12.921Z,174
2022-10-24T10:17:29.152Z,174
2022-10-24T10:18:45.392Z,168
2022-10-24T10:20:00.651Z,163
2022-10-24T10:21:16.891Z,163
2022-10-24T10:22:33.128Z,157
2022-10-24T10:23:49.364Z,151
2022-10-24T10:25:05.621Z,151
2022-10-24T10:26:21.859Z,151
2022-10-24T10:27:38.092Z,151
2022-10-24T10:28:53.343Z,151
2022-10-24T10:30:09.584Z,151
2022-10-24T10:31:25.806Z,151
2022-10-24T10:32:42.043Z,151
2022-10-24T10:33:58.284Z,151
2022-10-24T10:35:14.534Z,151
2022-10-24T10:36:30.781Z,151
2022-10-24T10:37:47.036Z,151
2022-10-24T10:39:03.261Z,151
2022-10-24T10:40:19.501Z,146
2022-10-24T10:41:35.717Z,140
2022-10-24T10:42:51.982Z,135
2022-10-24T10:44:08.236Z,135
2022-10-24T10:45:23.481Z,135
2022-10-24T10:46:39.714Z,140
2022-10-24T10:47:55.933Z,140
2022-10-24T10:49:12.172Z,140
2022-10-24T10:50:28.435Z,146
2022-10-24T10:51:44.678Z,146
2022-10-24T10:53:00.918Z,151
2022-10-24T10:54:17.125Z,151
2022-10-24T10:55:33.370Z,151
2022-10-24T10:56:49.631Z,151
2022-10-24T10:58:05.852Z,163
2022-10-24T10:59:22.083Z,163
2022-10-24T11:00:38.322Z,157
2022-10-24T11:01:53.581Z,163
2022-10-24T11:03:09.816Z,151
2022-10-24T11:04:26.063Z,151
2022-10-24T11:05:42.297Z,151
2022-10-24T11:06:58.535Z,151
2022-10-24T11:08:14.790Z,146
2022-10-24T11:09:31.010Z,146
2022-10-24T11:10:47.257Z,140
2022-10-24T11:12:03.488Z,146
2022-10-24T11:13:19.730Z,146
2022-10-24T11:14:35.983Z,146
2022-10-24T11:15:52.205Z,151
2022-10-24T11:17:08.453Z,151
2022-10-24T11:18:23.701Z,151
2022-10-24T11:19:39.943Z,151
2022-10-24T11:20:56.189Z,146
2022-10-24T11:22:12.421Z,135
2022-10-24T11:23:28.665Z,129
2022-10-24T11:24:44.903Z,123
2022-10-24T11:26:01.137Z,123
2022-10-24T11:27:17.000Z,118
2022-10-24T11:28:33.619Z,118
2022-10-24T11:29:49.849Z,123
2022-10-24T11:31:06.103Z,123
2022-10-24T11:32:22.338Z,123
2022-10-24T11:33:38.575Z,123
2022-10-24T11:34:53.820Z,129
2022-10-24T11:36:10.060Z,129
2022-10-24T11:37:26.298Z,129
2022-10-24T11:38:42.540Z,129
2022-10-24T11:39:58.775Z,129
2022-10-24T11:41:15.022Z,123
2022-10-24T11:42:31.258Z,123
2022-10-24T11:43:47.493Z,123
2022-10-24T11:45:03.736Z,123
2022-10-24T11:46:19.980Z,123
2022-10-24T11:47:36.211Z,123
2022-10-24T11:48:52.456Z,123
2022-10-24T11:50:08.692Z,123
2022-10-24T11:51:23.943Z,123
2022-10-24T11:52:40.191Z,123
2022-10-24T11:53:56.428Z,123
2022-10-24T11:55:12.673Z,123
2022-10-24T11:56:28.914Z,123
2022-10-24T11:57:45.135Z,123
2022-10-24T11:59:01.374Z,123
2022-10-24T12:00:17.631Z,129
2022-10-24T12:01:33.862Z,129
2022-10-24T12:02:50.091Z,129
2022-10-24T12:04:06.336Z,135
2022-10-24T12:05:22.571Z,140
2022-10-24T12:06:38.000Z,140
2022-10-24T12:07:54.079Z,146
2022-10-24T12:09:10.319Z,151
2022-10-24T12:10:26.554Z,157
2022-10-24T12:11:42.788Z,163
2022-10-24T12:12:59.031Z,168
2022-10-24T12:14:15.267Z,174
2022-10-24T12:15:31.499Z,174
2022-10-24T12:16:47.000Z,180
2022-10-24T12:18:03.978Z,180
2022-10-24T12:19:20.230Z,180
2022-10-24T12:20:36.465Z,185
2022-10-24T12:21:52.691Z,185
2022-10-24T12:23:08.929Z,191
2022-10-24T12:24:24.190Z,191
2022-10-24T12:25:40.434Z,191
2022-10-24T12:26:56.672Z,196
2022-10-24T12:28:12.921Z,202
2022-10-24T12:29:29.155Z,202
2022-10-24T12:30:45.397Z,202
2022-10-24T12:32:01.639Z,202
2022-10-24T12:33:17.859Z,196
2022-10-24T12:34:34.109Z,196
2022-10-24T12:35:50.340Z,191
2022-10-24T12:37:06.591Z,191
2022-10-24T12:38:22.827Z,191
2022-10-24T12:39:39.061Z,191
2022-10-24T12:40:55.416Z,191
2022-10-24T12:42:11.657Z,185
2022-10-24T12:43:27.893Z,185
2022-10-24T12:44:44.143Z,185
2022-10-24T12:46:00.376Z,185
2022-10-24T12:47:16.613Z,185
2022-10-24T12:48:32.865Z,185
2022-10-24T12:49:49.094Z,185
2022-10-24T12:51:05.338Z,185
2022-10-24T12:52:21.576Z,185
2022-10-24T12:53:37.814Z,185
2022-10-24T12:54:54.064Z,185
2022-10-24T12:56:10.295Z,185
2022-10-24T12:57:25.543Z,185
2022-10-24T12:58:41.781Z,185
2022-10-24T12:59:58.027Z,185
2022-10-24T13:01:14.273Z,180
2022-10-24T13:02:30.496Z,174
2022-10-24T13:03:46.741Z,174
2022-10-24T13:05:02.978Z,174
2022-10-24T13:06:19.219Z,168
2022-10-24T13:07:35.458Z,168
2022-10-24T13:08:51.706Z,163
2022-10-24T13:10:07.931Z,157
2022-10-24T13:11:24.173Z,151
2022-10-24T13:12:40.421Z,146
2022-10-24T13:13:55.685Z,135
2022-10-24T13:15:11.912Z,129
2022-10-24T13:16:28.147Z,129
2022-10-24T13:17:44.388Z,123
2022-10-24T13:19:00.644Z,118
2022-10-24T13:20:16.872Z,118
2022-10-24T13:21:33.104Z,112
2022-10-24T13:22:49.347Z,112
2022-10-24T13:24:05.596Z,112
2022-10-24T13:25:21.827Z,106
2022-10-24T13:26:38.062Z,101
2022-10-24T13:27:54.305Z,95
2022-10-24T13:29:10.546Z,95
2022-10-24T13:30:25.792Z,101
2022-10-24T13:31:42.043Z,95
2022-10-24T13:32:58.277Z,95
2022-10-24T13:34:14.514Z,95
2022-10-24T13:35:30.763Z,95
2022-10-24T13:36:46.988Z,90
2022-10-24T13:38:03.232Z,84
2022-10-24T13:39:19.482Z,78
2022-10-24T13:40:35.707Z,73
2022-10-24T13:41:51.954Z,73
2022-10-24T13:43:08.189Z,78
2022-10-24T13:44:24.431Z,73
2022-10-24T13:45:40.679Z,73
2022-10-24T13:46:55.923Z,73
2022-10-24T13:48:12.163Z,67
2022-10-24T13:49:28.400Z,73
2022-10-24T13:50:44.650Z,73
2022-10-24T13:52:00.885Z,78
2022-10-24T13:53:17.116Z,84
2022-10-24T13:54:33.369Z,84
2022-10-24T13:55:49.592Z,90
2022-10-24T13:57:05.833Z,90
2022-10-24T13:58:22.077Z,84
2022-10-24T13:59:38.324Z,84
2022-10-24T14:00:54.565Z,84
2022-10-24T14:02:10.795Z,84
2022-10-24T14:03:26.052Z,84
2022-10-24T14:04:42.283Z,84
2022-10-24T14:05:58.542Z,78
2022-10-24T14:07:14.780Z,73
2022-10-24T14:08:31.009Z,73
2022-10-24T14:09:47.248Z,78
2022-10-24T14:11:03.486Z,78
2022-10-24T14:12:19.725Z,78
2022-10-24T14:13:35.961Z,78
2022-10-24T14:14:52.195Z,84
2022-10-24T14:16:08.447Z,90
2022-10-24T14:17:24.684Z,95
2022-10-24T14:18:40.916Z,106
2022-10-24T14:19:56.168Z,118
2022-10-24T14:21:12.414Z,123
2022-10-24T14:22:28.647Z,129
2022-10-24T14:23:44.890Z,129
2022-10-24T14:25:01.137Z,135
2022-10-24T14:26:17.371Z,135
2022-10-24T14:27:33.608Z,135
2022-10-24T14:28:49.854Z,135
2022-10-24T14:30:06.086Z,135
2022-10-24T14:31:22.330Z,135
2022-10-24T14:32:38.563Z,129
2022-10-24T14:33:54.802Z,123
2022-10-24T14:35:11.041Z,123
2022-10-24T14:36:27.273Z,118
2022-10-24T14:37:42.550Z,112
2022-10-24T14:38:58.776Z,112
2022-10-24T14:40:15.014Z,106
2022-10-24T14:41:31.262Z,106
2022-10-24T14:42:47.498Z,106
2022-10-24T14:44:02.750Z,106
2022-10-24T14:45:18.989Z,106
2022-10-24T14:46:35.240Z,101
2022-10-24T14:47:51.477Z,95
2022-10-24T14:49:07.721Z,95
2022-10-24T14:50:23.949Z,90
2022-10-24T14:51:40.189Z,84
2022-10-24T14:52:56.426Z,84
2022-10-24T14:54:12.679Z,78
2022-10-24T14:55:28.908Z,78
2022-10-24T14:56:45.162Z,78
2022-10-24T14:58:01.395Z,73
2022-10-24T14:59:17.636Z,73
2022-10-24T15:00:33.865Z,73
2022-10-24T15:01:49.117Z,67
2022-10-24T15:03:05.372Z,67
2022-10-24T15:04:21.609Z,67
2022-10-24T15:05:37.846Z,67
2022-10-24T15:06:54.078Z,67
2022-10-24T15:08:10.326Z,67
2022-10-24T15:09:26.552Z,67
2022-10-24T15:10:42.795Z,67
2022-10-24T15:11:59.032Z,67
2022-10-24T15:13:15.279Z,67
2022-10-24T15:14:31.518Z,61
2022-10-24T15:15:47.751Z,61
2022-10-24T15:17:03.992Z,61
2022-10-24T15:18:19.262Z,56
2022-10-24T15:19:35.485Z,56
2022-10-24T15:20:51.720Z,56
2022-10-24T15:22:07.971Z,50
2022-10-24T15:23:24.202Z,50
2022-10-24T15:24:40.435Z,50
2022-10-24T15:25:56.692Z,45
2022-10-24T15:27:12.928Z,45
2022-10-24T15:28:29.166Z,45
2022-10-24T15:29:45.396Z,50
2022-10-24T15:31:01.626Z,45
2022-10-24T15:32:17.880Z,45
2022-10-24T15:33:34.113Z,45
2022-10-24T15:34:49.367Z,39
2022-10-24T15:36:05.598Z,39
2022-10-24T15:37:21.837Z,39
2022-10-24T15:38:38.090Z,33
2022-10-24T15:39:54.324Z,33
2022-10-24T15:41:10.577Z,33
2022-10-24T15:42:26.792Z,28
2022-10-24T15:43:43.000Z,28
2022-10-24T15:44:59.283Z,22
2022-10-24T15:46:15.522Z,22
2022-10-24T15:47:31.760Z,22
2022-10-24T15:48:47.992Z,16
2022-10-24T15:50:04.237Z,16
2022-10-24T15:51:19.498Z,11
2022-10-24T15:52:35.720Z,11
2022-10-24T15:53:51.963Z,11
2022-10-24T15:55:08.202Z,11
2022-10-24T15:56:24.449Z,5
2022-10-24T15:57:40.697Z,5
2022-10-24T15:58:56.918Z,5
2022-10-24T16:01:29.395Z,5
2022-10-24T16:02:45.636Z,0
2022-10-24T16:04:01.888Z,0
2022-10-24T16:05:18.106Z,0
2022-10-24T16:06:34.359Z,0
2022-10-24T16:07:49.606Z,0
2022-10-24T16:09:05.843Z,0
2022-10-24T16:10:22.084Z,0
2022-10-24T16:11:38.337Z,0
2022-10-24T16:12:54.561Z,0
2022-10-24T16:14:10.802Z,0
2022-10-24T16:15:27.042Z,0
2022-10-24T16:16:43.282Z,0
2022-10-24T16:17:59.537Z,0
2022-10-24T16:19:15.776Z,0
2022-10-24T16:20:32.013Z,0
2022-10-24T16:21:48.245Z,0
2022-10-24T16:23:04.482Z,0
2022-10-24T16:24:19.753Z,0
2022-10-24T16:25:35.980Z,0
2022-10-24T16:26:52.223Z,0
2022-10-24T16:28:08.454Z,0
2022-10-24T16:29:24.700Z,0
2022-10-24T16:30:40.941Z,0
2022-10-24T16:31:57.178Z,0
2022-10-24T16:33:13.416Z,0
2022-10-24T16:34:29.665Z,0
2022-10-24T16:35:45.954Z,0
2022-10-24T16:37:02.257Z,0
2022-10-24T16:38:18.544Z,0
2022-10-24T16:39:34.848Z,0
2022-10-24T16:40:50.158Z,0
2022-10-24T16:42:06.455Z,0
2022-10-24T16:43:22.733Z,0
2022-10-24T16:44:39.028Z,0
2022-10-24T16:45:55.320Z,0
2022-10-24T16:47:11.614Z,0
2022-10-24T16:48:27.911Z,0
2022-10-24T16:49:44.217Z,0
2022-10-24T16:51:00.499Z,0
2022-10-24T16:52:16.806Z,0
2022-10-24T16:53:33.089Z,0
2022-10-24T16:54:49.373Z,0
2022-10-24T16:56:05.667Z,0
2022-10-24T16:57:20.985Z,0
2022-10-24T16:58:37.276Z,0
2022-10-24T16:59:53.565Z,0
2022-10-24T17:01:09.867Z,0
2022-10-24T17:02:26.150Z,0
2022-10-24T17:03:42.462Z,0
2022-10-24T17:04:58.751Z,0
2022-10-24T17:06:15.031Z,0
2022-10-24T17:07:31.331Z,0
2022-10-24T17:08:47.631Z,0
2022-10-24T17:10:03.926Z,0
2022-10-24T17:11:20.219Z,0
2022-10-24T17:12:36.516Z,0
2022-10-24T17:13:51.818Z,0
2022-10-24T17:15:08.106Z,0
2022-10-24T17:16:24.404Z,0
2022-10-24T17:17:40.691Z,0
2022-10-24T17:18:56.986Z,0
2022-10-24T17:20:13.275Z,0
2022-10-24T17:21:29.567Z,0
2022-10-24T17:22:45.873Z,0
2022-10-24T17:24:02.161Z,0
2022-10-24T17:25:18.455Z,0
2022-10-24T17:26:34.751Z,0
2022-10-24T17:27:51.052Z,0
2022-10-24T17:29:07.340Z,0
2022-10-24T17:30:22.639Z,0
2022-10-24T17:31:38.937Z,0
2022-10-24T17:32:55.230Z,0
2022-10-24T17:34:11.528Z,0
2022-10-24T17:35:27.830Z,0
2022-10-24T17:36:44.118Z,0
2022-10-24T17:38:00.394Z,0
2022-10-24T17:39:16.696Z,0
2022-10-24T17:40:32.984Z,0
2022-10-24T17:41:49.282Z,0
2022-10-24T17:43:05.581Z,0
2022-10-24T17:44:21.866Z,0
2022-10-24T17:45:38.152Z,0
2022-10-24T17:46:53.483Z,0
2022-10-24T17:48:09.762Z,0
2022-10-24T17:49:26.058Z,0
2022-10-24T17:50:42.359Z,0
2022-10-24T17:51:58.658Z,0
2022-10-24T17:53:14.932Z,0
2022-10-24T17:54:31.244Z,0
2022-10-24T17:55:47.523Z,0
2022-10-24T17:57:03.809Z,0
2022-10-24T17:58:20.111Z,0
2022-10-24T17:59:36.409Z,0
2022-10-24T18:00:52.701Z,0
2022-10-24T18:02:08.999Z,0
2022-10-24T18:03:24.307Z,0
2022-10-24T18:04:40.593Z,0
2022-10-24T18:05:56.889Z,0
2022-10-24T18:07:13.172Z,0
2022-10-24T18:08:29.468Z,0
2022-10-24T18:09:45.761Z,0
2022-10-24T18:11:02.065Z,0
2022-10-24T18:12:18.359Z,0
2022-10-24T18:13:34.641Z,0
2022-10-24T18:14:50.955Z,0
2022-10-24T18:16:07.238Z,0
2022-10-24T18:17:23.526Z,0